M I D A S
Marine Information and Data Acquisition System
Tripno 1240 of the Zeeleeuw from 2007-03-27 08:20:43 to 2007-03-27 14:35:07
Back to CruiseResearch ActivitiesStationsMapUnderway DataData graphs

EquipmentUnitsComment
TimeDGPSUTC
LatitudeDGPSDM.mWGS84
LongitudeDGPSDM.mWGS84
HeadingGyrodeg 
SOGDGPSknotsSpeed over ground
COGDGPSdegCourse over ground
DepthEcho soundermeters200 kHz
Missing or incorrect values are displayed as -999
Navigation data collected by the RV Zeeleeuw from 2007-03-27 07:28:17 to 2007-03-27 14:44:08
                                                                                    Next 1000 lines
Time Latitude Longitude Heading SOG COG Depth
2007-03-27 07:28:28 51°13.602 2°56.099 125.7 0.1 213 -999
2007-03-27 07:28:33 51°13.602 2°56.099 125.7 -999 120 -999
2007-03-27 07:28:38 51°13.602 2°56.099 125.7 0.1 213 -999
2007-03-27 07:28:42 51°13.602 2°56.099 125.7 0.1 7 -999
2007-03-27 07:28:47 51°13.602 2°56.099 125.7 -999 226 -999
2007-03-27 07:28:52 51°13.602 2°56.099 125.7 -999 39 -999
2007-03-27 07:28:57 51°13.602 2°56.099 125.7 -999 207 -999
2007-03-27 07:29:03 51°13.602 2°56.1 125.7 0.1 23 -999
2007-03-27 07:29:07 51°13.602 2°56.1 125.7 -999 304 -999
2007-03-27 07:29:12 51°13.602 2°56.1 125.7 -999 28 -999
2007-03-27 07:29:18 51°13.602 2°56.1 125.9 -999 247 -999
2007-03-27 07:29:23 51°13.602 2°56.1 125.9 -999 301 -999
2007-03-27 07:29:27 51°13.602 2°56.099 125.9 -999 215 -999
2007-03-27 07:29:33 51°13.602 2°56.099 125.9 -999 223 -999
2007-03-27 07:29:38 51°13.602 2°56.099 125.8 -999 227 -999
2007-03-27 07:29:43 51°13.602 2°56.1 125.7 -999 4 -999
2007-03-27 07:29:47 51°13.602 2°56.1 125.7 -999 248 -999
2007-03-27 07:29:53 51°13.602 2°56.1 125.6 -999 -999 -999
2007-03-27 07:29:57 51°13.602 2°56.1 125.6 -999 70 -999
2007-03-27 07:30:03 51°13.602 2°56.1 125.6 -999 215 -999
2007-03-27 07:30:07 51°13.602 2°56.1 125.6 -999 236 -999
2007-03-27 07:30:13 51°13.602 2°56.099 125.5 -999 245 -999
2007-03-27 07:30:17 51°13.602 2°56.099 125.5 -999 18 -999
2007-03-27 07:30:23 51°13.602 2°56.099 125.5 -999 11 -999
2007-03-27 07:30:27 51°13.602 2°56.099 125.5 -999 192 -999
2007-03-27 07:30:33 51°13.602 2°56.099 125.5 -999 221 -999
2007-03-27 07:30:37 51°13.602 2°56.099 125.5 -999 223 -999
2007-03-27 07:30:43 51°13.602 2°56.099 125.5 -999 18 -999
2007-03-27 07:30:47 51°13.602 2°56.099 125.5 -999 253 -999
2007-03-27 07:30:53 51°13.602 2°56.099 125.5 -999 188 -999
2007-03-27 07:30:57 51°13.602 2°56.099 125.5 -999 227 -999
2007-03-27 07:31:03 51°13.602 2°56.099 125.5 -999 334 -999
2007-03-27 07:31:07 51°13.602 2°56.1 125.5 -999 6 -999
2007-03-27 07:31:13 51°13.602 2°56.1 125.5 -999 194 -999
2007-03-27 07:31:17 51°13.602 2°56.1 125.5 -999 195 -999
2007-03-27 07:31:22 51°13.602 2°56.1 125.5 -999 104 -999
2007-03-27 07:31:28 51°13.602 2°56.1 125.5 -999 210 -999
2007-03-27 07:31:33 51°13.602 2°56.1 125.5 -999 27 -999
2007-03-27 07:31:37 51°13.602 2°56.1 125.5 -999 -999 -999
2007-03-27 07:31:43 51°13.602 2°56.1 125.5 -999 334 -999
2007-03-27 07:31:47 51°13.602 2°56.1 125.5 -999 278 -999
2007-03-27 07:31:52 51°13.602 2°56.1 125.5 -999 199 -999
2007-03-27 07:31:58 51°13.602 2°56.1 125.5 -999 229 -999
2007-03-27 07:32:03 51°13.602 2°56.1 125.5 -999 57 -999
2007-03-27 07:32:07 51°13.602 2°56.1 125.5 -999 196 -999
2007-03-27 07:32:12 51°13.602 2°56.1 125.5 -999 41 -999
2007-03-27 07:32:18 51°13.603 2°56.1 125.5 -999 273 -999
2007-03-27 07:32:23 51°13.603 2°56.1 125.5 -999 -999 -999
2007-03-27 07:32:27 51°13.603 2°56.1 125.5 -999 244 -999
2007-03-27 07:32:33 51°13.603 2°56.1 125.6 0.1 193 -999
2007-03-27 07:32:38 51°13.603 2°56.1 125.6 -999 75 -999
2007-03-27 07:32:43 51°13.603 2°56.1 125.7 -999 242 -999
2007-03-27 07:32:47 51°13.603 2°56.1 125.7 -999 177 -999
2007-03-27 07:32:53 51°13.603 2°56.1 125.7 -999 200 -999
2007-03-27 07:32:57 51°13.603 2°56.1 125.7 -999 26 -999
2007-03-27 07:33:03 51°13.603 2°56.1 125.7 -999 202 -999
2007-03-27 07:33:07 51°13.603 2°56.1 125.7 -999 205 -999
2007-03-27 07:33:13 51°13.603 2°56.1 125.8 -999 218 -999
2007-03-27 07:33:17 51°13.603 2°56.1 125.9 -999 263 -999
2007-03-27 07:33:23 51°13.603 2°56.1 125.9 -999 332 -999
2007-03-27 07:33:27 51°13.603 2°56.1 125.9 -999 305 -999
2007-03-27 07:33:33 51°13.603 2°56.1 125.9 -999 301 -999
2007-03-27 07:33:37 51°13.603 2°56.1 125.9 -999 241 -999
2007-03-27 07:33:43 51°13.603 2°56.1 125.9 -999 288 -999
2007-03-27 07:33:47 51°13.603 2°56.1 125.9 -999 252 -999
2007-03-27 07:33:53 51°13.603 2°56.1 125.8 -999 336 -999
2007-03-27 07:33:57 51°13.603 2°56.1 125.8 -999 222 -999
2007-03-27 07:34:02 51°13.603 2°56.099 125.7 -999 213 -999
2007-03-27 07:34:08 51°13.603 2°56.099 125.7 -999 194 -999
2007-03-27 07:34:13 51°13.603 2°56.099 125.7 -999 309 -999
2007-03-27 07:34:17 51°13.603 2°56.099 125.7 -999 223 -999
2007-03-27 07:34:23 51°13.603 2°56.1 125.6 -999 157 -999
2007-03-27 07:34:27 51°13.603 2°56.1 125.6 -999 228 -999
2007-03-27 07:34:32 51°13.603 2°56.1 125.5 0.1 12 -999
2007-03-27 07:34:38 51°13.603 2°56.099 125.5 -999 4 -999
2007-03-27 07:34:43 51°13.603 2°56.099 125.5 -999 325 -999
2007-03-27 07:34:47 51°13.603 2°56.099 125.5 -999 233 -999
2007-03-27 07:34:53 51°13.603 2°56.099 125.5 -999 298 -999
2007-03-27 07:34:58 51°13.603 2°56.099 125.5 -999 350 -999
2007-03-27 07:35:03 51°13.603 2°56.099 125.5 -999 208 -999
2007-03-27 07:35:07 51°13.603 2°56.099 125.5 -999 190 -999
2007-03-27 07:35:13 51°13.603 2°56.099 125.5 -999 118 -999
2007-03-27 07:35:18 51°13.603 2°56.099 125.5 -999 219 -999
2007-03-27 07:35:23 51°13.603 2°56.099 125.5 -999 9 -999
2007-03-27 07:35:27 51°13.603 2°56.099 125.5 -999 196 -999
2007-03-27 07:35:33 51°13.602 2°56.099 125.5 -999 179 -999
2007-03-27 07:35:37 51°13.603 2°56.099 125.6 -999 175 -999
2007-03-27 07:35:43 51°13.603 2°56.099 125.8 -999 29 -999
2007-03-27 07:35:47 51°13.603 2°56.099 125.9 -999 156 -999
2007-03-27 07:35:53 51°13.603 2°56.1 126 -999 30 -999
2007-03-27 07:35:57 51°13.603 2°56.1 126 -999 356 -999
2007-03-27 07:36:03 51°13.603 2°56.1 126.1 -999 232 -999
2007-03-27 07:36:07 51°13.603 2°56.1 126.1 -999 228 -999
2007-03-27 07:36:13 51°13.603 2°56.1 126 -999 341 -999
2007-03-27 07:36:17 51°13.603 2°56.1 125.9 -999 221 -999
2007-03-27 07:36:23 51°13.602 2°56.099 125.6 0.1 217 -999
2007-03-27 07:36:28 51°13.603 2°56.099 125.5 -999 301 -999
2007-03-27 07:36:33 51°13.603 2°56.099 125.5 -999 313 -999
2007-03-27 07:36:37 51°13.603 2°56.099 125.3 -999 2 -999
2007-03-27 07:36:42 51°13.602 2°56.099 125.2 -999 211 -999
2007-03-27 07:36:47 51°13.603 2°56.099 125.2 -999 11 -999
2007-03-27 07:36:53 51°13.603 2°56.099 125.1 0.1 198 -999
2007-03-27 07:36:57 51°13.603 2°56.099 125.1 -999 10 -999
2007-03-27 07:37:02 51°13.603 2°56.099 125.1 -999 7 -999
2007-03-27 07:37:07 51°13.603 2°56.1 125.1 -999 12 -999
2007-03-27 07:37:13 51°13.603 2°56.1 125.1 -999 15 -999
2007-03-27 07:37:18 51°13.603 2°56.1 125.1 -999 30 -999
2007-03-27 07:37:23 51°13.603 2°56.099 125.1 -999 214 -999
2007-03-27 07:37:27 51°13.603 2°56.099 125.1 -999 211 -999
2007-03-27 07:37:33 51°13.603 2°56.099 125.1 -999 225 -999
2007-03-27 07:37:38 51°13.603 2°56.099 125.1 -999 203 -999
2007-03-27 07:37:43 51°13.603 2°56.099 125.1 -999 52 -999
2007-03-27 07:37:47 51°13.603 2°56.099 125.2 -999 5 -999
2007-03-27 07:37:53 51°13.603 2°56.099 125.2 -999 27 -999
2007-03-27 07:37:57 51°13.603 2°56.099 125.2 -999 203 -999
2007-03-27 07:38:03 51°13.603 2°56.099 125.3 -999 10 -999
2007-03-27 07:38:07 51°13.603 2°56.099 125.3 -999 329 -999
2007-03-27 07:38:13 51°13.603 2°56.099 125.4 -999 213 -999
2007-03-27 07:38:17 51°13.603 2°56.099 125.5 -999 184 -999
2007-03-27 07:38:23 51°13.603 2°56.099 125.5 -999 161 -999
2007-03-27 07:38:27 51°13.603 2°56.099 125.5 -999 194 -999
2007-03-27 07:38:33 51°13.603 2°56.099 125.5 -999 185 -999
2007-03-27 07:38:37 51°13.603 2°56.099 125.5 -999 261 -999
2007-03-27 07:38:43 51°13.603 2°56.099 125.5 -999 272 -999
2007-03-27 07:38:48 51°13.602 2°56.099 125.5 -999 212 -999
2007-03-27 07:38:53 51°13.602 2°56.099 125.5 -999 199 -999
2007-03-27 07:38:57 51°13.602 2°56.099 125.6 -999 214 -999
2007-03-27 07:39:03 51°13.602 2°56.099 125.6 -999 227 -999
2007-03-27 07:39:08 51°13.602 2°56.099 125.6 -999 128 -999
2007-03-27 07:39:13 51°13.602 2°56.099 125.6 -999 351 -999
2007-03-27 07:39:17 51°13.602 2°56.099 125.6 -999 359 -999
2007-03-27 07:39:23 51°13.602 2°56.099 125.6 -999 209 -999
2007-03-27 07:39:27 51°13.602 2°56.099 125.6 -999 204 -999
2007-03-27 07:39:33 51°13.602 2°56.099 125.6 -999 25 -999
2007-03-27 07:39:37 51°13.602 2°56.099 125.6 0.1 11 -999
2007-03-27 07:39:42 51°13.602 2°56.099 125.6 -999 335 -999
2007-03-27 07:39:47 51°13.602 2°56.099 125.6 -999 10 -999
2007-03-27 07:39:52 51°13.602 2°56.099 125.6 -999 234 -999
2007-03-27 07:39:57 51°13.602 2°56.099 125.6 -999 309 -999
2007-03-27 07:40:03 51°13.602 2°56.099 125.7 -999 158 -999
2007-03-27 07:40:07 51°13.602 2°56.099 125.7 -999 199 -999
2007-03-27 07:40:13 51°13.602 2°56.099 125.7 -999 204 -999
2007-03-27 07:40:18 51°13.602 2°56.099 125.7 -999 238 -999
2007-03-27 07:40:23 51°13.602 2°56.099 125.7 -999 357 -999
2007-03-27 07:40:27 51°13.602 2°56.099 125.7 -999 240 -999
2007-03-27 07:40:33 51°13.602 2°56.099 125.7 -999 302 -999
2007-03-27 07:40:38 51°13.602 2°56.099 125.7 -999 248 -999
2007-03-27 07:40:43 51°13.602 2°56.099 125.5 -999 29 -999
2007-03-27 07:40:47 51°13.602 2°56.099 125.5 -999 227 -999
2007-03-27 07:40:53 51°13.602 2°56.099 125.5 0.1 5 -999
2007-03-27 07:40:57 51°13.602 2°56.099 125.5 -999 234 -999
2007-03-27 07:41:03 51°13.602 2°56.099 125.3 -999 50 -999
2007-03-27 07:41:07 51°13.602 2°56.099 125.2 0.1 215 -999
2007-03-27 07:41:13 51°13.602 2°56.099 125.2 -999 342 -999
2007-03-27 07:41:17 51°13.602 2°56.099 125.2 -999 22 -999
2007-03-27 07:41:23 51°13.602 2°56.1 125.2 -999 139 -999
2007-03-27 07:41:27 51°13.602 2°56.1 125.2 -999 193 -999
2007-03-27 07:41:33 51°13.602 2°56.1 125.2 -999 344 -999
2007-03-27 07:41:37 51°13.602 2°56.1 125.2 -999 232 -999
2007-03-27 07:41:43 51°13.602 2°56.1 125.2 -999 30 -999
2007-03-27 07:41:48 51°13.602 2°56.1 125.2 -999 12 -999
2007-03-27 07:41:53 51°13.602 2°56.1 125.3 -999 17 -999
2007-03-27 07:41:57 51°13.602 2°56.1 125.3 -999 59 -999
2007-03-27 07:42:03 51°13.602 2°56.1 125.3 -999 233 -999
2007-03-27 07:42:08 51°13.602 2°56.1 125.3 -999 287 -999
2007-03-27 07:42:13 51°13.602 2°56.1 125.3 -999 228 -999
2007-03-27 07:42:17 51°13.602 2°56.1 125.3 -999 173 -999
2007-03-27 07:42:22 51°13.602 2°56.1 125.3 -999 216 -999
2007-03-27 07:42:27 51°13.602 2°56.1 125.3 -999 308 -999
2007-03-27 07:42:32 51°13.602 2°56.1 125.3 -999 1 -999
2007-03-27 07:42:37 51°13.602 2°56.1 125.3 -999 35 -999
2007-03-27 07:42:43 51°13.602 2°56.1 125.3 -999 264 -999
2007-03-27 07:42:47 51°13.602 2°56.1 125.3 -999 298 -999
2007-03-27 07:42:52 51°13.602 2°56.1 125.3 0.1 3 -999
2007-03-27 07:42:58 51°13.602 2°56.1 125.3 -999 264 -999
2007-03-27 07:43:03 51°13.602 2°56.1 125.3 -999 321 -999
2007-03-27 07:43:07 51°13.602 2°56.1 125.3 -999 203 -999
2007-03-27 07:43:13 51°13.602 2°56.1 125.3 -999 215 -999
2007-03-27 07:43:18 51°13.602 2°56.1 125.3 -999 50 -999
2007-03-27 07:43:23 51°13.602 2°56.1 125.3 -999 71 -999
2007-03-27 07:43:27 51°13.602 2°56.1 125.3 -999 201 -999
2007-03-27 07:43:33 51°13.602 2°56.1 125.4 -999 272 -999
2007-03-27 07:43:37 51°13.602 2°56.1 125.4 -999 305 -999
2007-03-27 07:43:43 51°13.602 2°56.1 125.5 -999 207 -999
2007-03-27 07:43:47 51°13.602 2°56.1 125.5 -999 201 -999
2007-03-27 07:43:53 51°13.602 2°56.1 125.5 -999 2 -999
2007-03-27 07:43:57 51°13.602 2°56.1 125.5 -999 352 -999
2007-03-27 07:44:03 51°13.602 2°56.1 125.5 -999 12 -999
2007-03-27 07:44:07 51°13.602 2°56.1 125.5 -999 292 -999
2007-03-27 07:44:13 51°13.602 2°56.1 125.5 -999 355 -999
2007-03-27 07:44:17 51°13.602 2°56.1 125.5 -999 161 -999
2007-03-27 07:44:22 51°13.602 2°56.1 125.5 0.1 211 -999
2007-03-27 07:44:27 51°13.602 2°56.1 125.5 -999 242 -999
2007-03-27 07:44:33 51°13.602 2°56.1 125.5 -999 219 -999
2007-03-27 07:44:37 51°13.602 2°56.1 125.5 -999 78 -999
2007-03-27 07:44:43 51°13.602 2°56.1 125.5 -999 195 -999
2007-03-27 07:44:47 51°13.602 2°56.1 125.5 -999 190 -999
2007-03-27 07:44:53 51°13.602 2°56.1 125.5 -999 101 -999
2007-03-27 07:44:57 51°13.602 2°56.1 125.5 -999 181 -999
2007-03-27 07:45:03 51°13.602 2°56.1 125.5 -999 188 -999
2007-03-27 07:45:07 51°13.602 2°56.1 125.5 -999 3 -999
2007-03-27 07:45:12 51°13.602 2°56.1 125.5 -999 266 -999
2007-03-27 07:45:18 51°13.602 2°56.1 125.5 -999 12 -999
2007-03-27 07:45:23 51°13.602 2°56.1 125.6 -999 225 -999
2007-03-27 07:45:27 51°13.603 2°56.1 125.7 -999 29 -999
2007-03-27 07:45:33 51°13.603 2°56.1 125.7 -999 206 -999
2007-03-27 07:45:38 51°13.603 2°56.1 125.7 -999 189 -999
2007-03-27 07:45:43 51°13.603 2°56.1 125.7 -999 38 -999
2007-03-27 07:45:47 51°13.603 2°56.1 125.7 -999 49 -999
2007-03-27 07:45:53 51°13.603 2°56.1 125.6 -999 56 -999
2007-03-27 07:45:57 51°13.603 2°56.1 125.6 -999 23 -999
2007-03-27 07:46:03 51°13.603 2°56.1 125.6 -999 218 -999
2007-03-27 07:46:07 51°13.603 2°56.1 125.5 -999 28 -999
2007-03-27 07:46:13 51°13.603 2°56.1 125.5 -999 342 -999
2007-03-27 07:46:17 51°13.603 2°56.1 125.5 -999 243 -999
2007-03-27 07:46:23 51°13.603 2°56.1 125.5 -999 242 -999
2007-03-27 07:46:27 51°13.602 2°56.1 125.5 -999 202 -999
2007-03-27 07:46:33 51°13.603 2°56.1 125.5 -999 211 -999
2007-03-27 07:46:37 51°13.603 2°56.1 125.6 -999 202 -999
2007-03-27 07:46:43 51°13.603 2°56.1 125.6 -999 31 -999
2007-03-27 07:46:47 51°13.603 2°56.1 125.7 -999 206 -999
2007-03-27 07:46:53 51°13.603 2°56.1 125.7 -999 209 -999
2007-03-27 07:46:57 51°13.603 2°56.1 125.8 -999 351 -999
2007-03-27 07:47:03 51°13.603 2°56.1 125.9 -999 7 -999
2007-03-27 07:47:07 51°13.603 2°56.1 125.9 -999 231 -999
2007-03-27 07:47:13 51°13.603 2°56.1 125.9 -999 235 -999
2007-03-27 07:47:17 51°13.603 2°56.1 125.9 -999 357 -999
2007-03-27 07:47:22 51°13.603 2°56.1 125.9 -999 9 -999
2007-03-27 07:47:28 51°13.603 2°56.1 125.8 -999 252 -999
2007-03-27 07:47:32 51°13.603 2°56.1 125.7 -999 358 -999
2007-03-27 07:47:38 51°13.603 2°56.1 125.6 -999 314 -999
2007-03-27 07:47:43 51°13.603 2°56.1 125.6 -999 355 -999
2007-03-27 07:47:47 51°13.603 2°56.1 125.5 -999 286 -999
2007-03-27 07:47:53 51°13.603 2°56.1 125.5 -999 312 -999
2007-03-27 07:47:58 51°13.603 2°56.1 125.5 -999 203 -999
2007-03-27 07:48:03 51°13.603 2°56.1 125.4 0.1 205 -999
2007-03-27 07:48:07 51°13.603 2°56.1 125.3 -999 215 -999
2007-03-27 07:48:13 51°13.603 2°56.1 125.3 -999 215 -999
2007-03-27 07:48:18 51°13.603 2°56.1 125.3 -999 15 -999
2007-03-27 07:48:23 51°13.603 2°56.1 125.2 -999 225 -999
2007-03-27 07:48:27 51°13.603 2°56.1 125.2 0.1 12 -999
2007-03-27 07:48:33 51°13.603 2°56.1 125.2 -999 322 -999
2007-03-27 07:48:38 51°13.603 2°56.1 125.2 -999 180 -999
2007-03-27 07:48:42 51°13.603 2°56.1 125.2 -999 207 7
2007-03-27 07:48:47 51°13.603 2°56.101 125.2 -999 274 7
2007-03-27 07:48:52 51°13.603 2°56.101 125.2 -999 205 5.3
2007-03-27 07:48:57 51°13.603 2°56.101 125.2 -999 354 7
2007-03-27 07:49:02 51°13.603 2°56.101 125.2 -999 5 5.3
2007-03-27 07:49:07 51°13.603 2°56.1 125.2 -999 29 7
2007-03-27 07:49:11 51°13.603 2°56.1 125.2 -999 30 7
2007-03-27 07:49:16 51°13.603 2°56.1 125.2 -999 9 7
2007-03-27 07:49:22 51°13.603 2°56.1 125.2 -999 188 -999
2007-03-27 07:49:27 51°13.603 2°56.1 125.2 -999 214 -999
2007-03-27 07:49:32 51°13.603 2°56.1 125.2 -999 203 7
2007-03-27 07:49:37 51°13.603 2°56.1 125.2 -999 316 7.1
2007-03-27 07:49:41 51°13.603 2°56.1 125.2 -999 203 5.3
2007-03-27 07:49:47 51°13.603 2°56.1 125.2 -999 224 7
2007-03-27 07:49:51 51°13.603 2°56.1 125.3 -999 268 7
2007-03-27 07:49:56 51°13.603 2°56.1 125.3 -999 246 7
2007-03-27 07:50:01 51°13.603 2°56.1 125.3 -999 237 7
2007-03-27 07:50:06 51°13.603 2°56.1 125.3 -999 207 5.3
2007-03-27 07:50:11 51°13.604 2°56.1 125.3 -999 254 7
2007-03-27 07:50:16 51°13.604 2°56.1 125.3 -999 70 5.3
2007-03-27 07:50:20 51°13.604 2°56.1 125.3 -999 203 7
2007-03-27 07:50:25 51°13.604 2°56.1 125.3 -999 210 7
2007-03-27 07:50:31 51°13.604 2°56.1 125.3 -999 203 7
2007-03-27 07:50:35 51°13.604 2°56.101 125.3 -999 30 7
2007-03-27 07:50:40 51°13.604 2°56.1 125.3 -999 13 7
2007-03-27 07:50:45 51°13.604 2°56.1 125.3 -999 237 -999
2007-03-27 07:50:50 51°13.604 2°56.1 125.3 -999 269 5.3
2007-03-27 07:50:55 51°13.604 2°56.1 125.3 -999 9 7
2007-03-27 07:51:00 51°13.604 2°56.1 125.3 -999 351 7
2007-03-27 07:51:05 51°13.603 2°56.1 125.3 -999 30 7
2007-03-27 07:51:10 51°13.603 2°56.1 125.3 -999 226 7
2007-03-27 07:51:15 51°13.603 2°56.1 125.3 -999 5 7
2007-03-27 07:51:20 51°13.603 2°56.1 125.4 -999 267 7
2007-03-27 07:51:24 51°13.603 2°56.1 125.4 -999 205 5.3
2007-03-27 07:51:29 51°13.603 2°56.1 125.4 -999 217 7
2007-03-27 07:51:34 51°13.603 2°56.1 125.4 -999 25 -999
2007-03-27 07:51:40 51°13.603 2°56.1 125.4 -999 217 -999
2007-03-27 07:51:45 51°13.603 2°56.1 125.4 -999 209 7
2007-03-27 07:51:51 51°13.603 2°56.1 125.4 -999 211 -999
2007-03-27 07:51:56 51°13.603 2°56.1 125.5 -999 193 7
2007-03-27 07:52:01 51°13.603 2°56.1 125.5 -999 197 7
2007-03-27 07:52:06 51°13.603 2°56.1 125.5 -999 201 7
2007-03-27 07:52:11 51°13.603 2°56.1 125.5 -999 137 7
2007-03-27 07:52:15 51°13.603 2°56.1 125.5 -999 211 5.3
2007-03-27 07:52:20 51°13.603 2°56.1 125.5 -999 283 7
2007-03-27 07:52:25 51°13.603 2°56.1 125.5 -999 60 5.3
2007-03-27 07:52:30 51°13.603 2°56.1 125.5 -999 38 7
2007-03-27 07:52:35 51°13.603 2°56.1 125.5 -999 317 7
2007-03-27 07:52:40 51°13.603 2°56.1 125.5 -999 348 7
2007-03-27 07:52:45 51°13.603 2°56.1 125.5 0.1 7 5.3
2007-03-27 07:52:50 51°13.603 2°56.1 125.5 -999 359 -999
2007-03-27 07:52:56 51°13.603 2°56.1 125.5 -999 270 -999
2007-03-27 07:53:01 51°13.603 2°56.1 125.5 -999 236 7
2007-03-27 07:53:05 51°13.603 2°56.1 125.4 0.1 230 7
2007-03-27 07:53:11 51°13.603 2°56.1 125.3 -999 302 -999
2007-03-27 07:53:16 51°13.603 2°56.1 125.2 -999 294 -999
2007-03-27 07:53:22 51°13.603 2°56.1 125.2 -999 228 7
2007-03-27 07:53:27 51°13.603 2°56.1 125.1 -999 216 7
2007-03-27 07:53:31 51°13.603 2°56.1 125 -999 31 7
2007-03-27 07:53:37 51°13.603 2°56.1 124.9 -999 207 7
2007-03-27 07:53:42 51°13.603 2°56.1 124.9 -999 17 7
2007-03-27 07:53:47 51°13.603 2°56.1 124.9 -999 294 7
2007-03-27 07:53:52 51°13.602 2°56.099 124.9 -999 207 7
2007-03-27 07:53:56 51°13.601 2°56.099 124.9 -999 163 -999
2007-03-27 07:54:03 51°13.602 2°56.099 124.9 -999 315 -999
2007-03-27 07:54:07 51°13.602 2°56.099 124.9 -999 291 -999
2007-03-27 07:54:12 51°13.602 2°56.1 125 -999 327 7
2007-03-27 07:54:17 51°13.603 2°56.1 125 -999 270 5.3
2007-03-27 07:54:22 51°13.603 2°56.1 125.1 -999 213 7
2007-03-27 07:54:27 51°13.604 2°56.1 125.1 -999 8 7
2007-03-27 07:54:32 51°13.604 2°56.1 125.2 -999 23 -999
2007-03-27 07:54:37 51°13.604 2°56.1 125.2 -999 200 7
2007-03-27 07:54:42 51°13.604 2°56.1 125.3 -999 126 7
2007-03-27 07:54:47 51°13.604 2°56.1 125.4 -999 190 -999
2007-03-27 07:54:52 51°13.604 2°56.1 125.5 -999 31 7
2007-03-27 07:54:57 51°13.604 2°56.1 125.5 -999 168 7
2007-03-27 07:55:02 51°13.604 2°56.1 125.5 -999 186 7
2007-03-27 07:55:07 51°13.604 2°56.1 125.5 -999 207 7
2007-03-27 07:55:12 51°13.604 2°56.1 125.5 -999 7 7
2007-03-27 07:55:17 51°13.604 2°56.101 125.5 -999 15 5.3
2007-03-27 07:55:21 51°13.603 2°56.1 125.5 0.1 7 7
2007-03-27 07:55:27 51°13.603 2°56.1 125.5 -999 342 -999
2007-03-27 07:55:32 51°13.602 2°56.1 125.5 -999 322 7
2007-03-27 07:55:37 51°13.602 2°56.1 125.5 -999 325 7
2007-03-27 07:55:42 51°13.602 2°56.1 125.3 -999 18 5.3
2007-03-27 07:55:47 51°13.602 2°56.1 125.2 -999 239 6.9
2007-03-27 07:55:51 51°13.602 2°56.1 125.1 -999 228 7
2007-03-27 07:55:56 51°13.602 2°56.1 124.9 -999 207 7
2007-03-27 07:56:01 51°13.602 2°56.1 124.9 -999 215 7
2007-03-27 07:56:06 51°13.602 2°56.1 124.9 -999 213 7
2007-03-27 07:56:11 51°13.602 2°56.1 124.9 -999 217 5.3
2007-03-27 07:56:16 51°13.602 2°56.1 124.9 -999 198 7
2007-03-27 07:56:21 51°13.602 2°56.101 124.8 -999 -999 -999
2007-03-27 07:56:26 51°13.602 2°56.101 124.8 -999 192 7
2007-03-27 07:56:31 51°13.602 2°56.1 124.8 -999 207 7
2007-03-27 07:56:36 51°13.602 2°56.1 124.8 -999 359 7
2007-03-27 07:56:41 51°13.601 2°56.1 124.8 -999 199 7
2007-03-27 07:56:46 51°13.601 2°56.1 124.8 -999 244 6.9
2007-03-27 07:56:51 51°13.602 2°56.1 124.8 -999 43 7
2007-03-27 07:56:56 51°13.602 2°56.1 124.8 -999 203 6.9
2007-03-27 07:57:00 51°13.602 2°56.1 124.8 -999 210 7
2007-03-27 07:57:06 51°13.602 2°56.1 124.8 -999 290 7
2007-03-27 07:57:10 51°13.602 2°56.1 124.8 -999 341 7
2007-03-27 07:57:15 51°13.602 2°56.1 124.8 -999 203 7
2007-03-27 07:57:20 51°13.602 2°56.1 124.9 -999 278 7
2007-03-27 07:57:25 51°13.602 2°56.1 124.9 -999 -999 7
2007-03-27 07:57:30 51°13.602 2°56.1 124.9 -999 347 6.9
2007-03-27 07:57:35 51°13.602 2°56.1 124.9 -999 221 7
2007-03-27 07:57:39 51°13.602 2°56.1 124.9 -999 221 6.9
2007-03-27 07:57:44 51°13.602 2°56.1 124.9 -999 359 6.9
2007-03-27 07:57:49 51°13.602 2°56.1 124.9 -999 197 -999
2007-03-27 07:57:55 51°13.602 2°56.1 124.9 -999 202 -999
2007-03-27 07:58:01 51°13.602 2°56.1 124.9 -999 246 -999
2007-03-27 07:58:06 51°13.602 2°56.1 124.9 -999 221 7
2007-03-27 07:58:11 51°13.602 2°56.1 124.9 -999 195 -999
2007-03-27 07:58:17 51°13.602 2°56.1 124.9 -999 192 -999
2007-03-27 07:58:23 51°13.602 2°56.101 124.9 -999 12 -999
2007-03-27 07:58:27 51°13.602 2°56.101 124.9 -999 8 -999
2007-03-27 07:58:32 51°13.602 2°56.1 124.9 -999 237 -999
2007-03-27 07:58:37 51°13.602 2°56.1 124.9 -999 190 -999
2007-03-27 07:58:43 51°13.602 2°56.1 124.9 -999 346 -999
2007-03-27 07:58:47 51°13.602 2°56.1 124.9 -999 352 7
2007-03-27 07:58:52 51°13.602 2°56.1 124.9 -999 10 7
2007-03-27 07:58:58 51°13.602 2°56.1 124.9 -999 212 -999
2007-03-27 07:59:02 51°13.602 2°56.1 125 -999 247 7
2007-03-27 07:59:07 51°13.602 2°56.1 125 -999 206 6.9
2007-03-27 07:59:12 51°13.602 2°56.1 125 -999 294 6.9
2007-03-27 07:59:17 51°13.602 2°56.1 125 -999 217 6.9
2007-03-27 07:59:22 51°13.602 2°56.1 125 -999 358 6.9
2007-03-27 07:59:27 51°13.602 2°56.1 125 -999 332 -999
2007-03-27 07:59:32 51°13.602 2°56.1 125 -999 343 6.9
2007-03-27 07:59:37 51°13.602 2°56.1 125 -999 11 7
2007-03-27 07:59:43 51°13.602 2°56.1 125 -999 210 -999
2007-03-27 07:59:47 51°13.602 2°56.101 125 -999 343 6.9
2007-03-27 07:59:52 51°13.602 2°56.101 125 -999 238 6.9
2007-03-27 07:59:57 51°13.602 2°56.1 125 -999 257 7
2007-03-27 08:00:02 51°13.602 2°56.101 125 -999 240 7
2007-03-27 08:00:07 51°13.602 2°56.101 125 -999 211 7
2007-03-27 08:00:11 51°13.602 2°56.101 124.9 -999 229 6.9
2007-03-27 08:00:16 51°13.602 2°56.101 124.9 -999 204 5.3
2007-03-27 08:00:21 51°13.602 2°56.101 124.9 -999 236 6.9
2007-03-27 08:00:26 51°13.602 2°56.101 124.9 -999 207 6.9
2007-03-27 08:00:31 51°13.602 2°56.101 124.9 -999 220 6.9
2007-03-27 08:00:36 51°13.602 2°56.101 124.9 -999 195 6.9
2007-03-27 08:00:41 51°13.602 2°56.101 124.9 -999 205 6.9
2007-03-27 08:00:46 51°13.602 2°56.101 124.9 -999 227 5.2
2007-03-27 08:00:50 51°13.602 2°56.101 124.9 -999 219 7
2007-03-27 08:00:56 51°13.602 2°56.101 124.9 -999 322 -999
2007-03-27 08:01:01 51°13.602 2°56.101 124.9 -999 346 -999
2007-03-27 08:01:06 51°13.602 2°56.101 124.9 -999 32 6.9
2007-03-27 08:01:11 51°13.602 2°56.101 124.9 -999 21 6.9
2007-03-27 08:01:16 51°13.602 2°56.101 124.9 -999 316 6.9
2007-03-27 08:01:21 51°13.602 2°56.101 124.9 -999 350 6.9
2007-03-27 08:01:26 51°13.602 2°56.101 124.9 -999 261 5.3
2007-03-27 08:01:31 51°13.602 2°56.101 124.9 -999 352 6.9
2007-03-27 08:01:36 51°13.602 2°56.101 124.9 -999 356 6.9
2007-03-27 08:01:41 51°13.602 2°56.101 124.9 -999 225 -999
2007-03-27 08:01:46 51°13.602 2°56.101 124.8 -999 18 -999
2007-03-27 08:01:51 51°13.602 2°56.101 124.8 -999 205 6.9
2007-03-27 08:01:56 51°13.602 2°56.101 124.8 0.1 207 6.9
2007-03-27 08:02:00 51°13.602 2°56.101 124.8 -999 206 6.9
2007-03-27 08:02:05 51°13.602 2°56.101 124.8 -999 194 6.9
2007-03-27 08:02:11 51°13.602 2°56.101 124.8 -999 25 6.9
2007-03-27 08:02:15 51°13.602 2°56.101 124.8 -999 217 6.9
2007-03-27 08:02:20 51°13.602 2°56.101 124.8 -999 -999 5.2
2007-03-27 08:02:25 51°13.602 2°56.101 124.9 -999 302 -999
2007-03-27 08:02:31 51°13.602 2°56.101 124.9 -999 12 6.9
2007-03-27 08:02:36 51°13.602 2°56.101 125 -999 215 -999
2007-03-27 08:02:41 51°13.602 2°56.101 125 -999 295 6.9
2007-03-27 08:02:46 51°13.602 2°56.101 125 -999 204 6.9
2007-03-27 08:02:51 51°13.602 2°56.101 124.9 -999 178 6.9
2007-03-27 08:02:56 51°13.602 2°56.101 124.8 -999 213 7
2007-03-27 08:03:01 51°13.602 2°56.101 124.8 -999 238 5.2
2007-03-27 08:03:05 51°13.602 2°56.101 124.8 -999 80 6.9
2007-03-27 08:03:10 51°13.602 2°56.101 124.8 -999 45 6.9
2007-03-27 08:03:15 51°13.602 2°56.101 124.8 -999 213 6.9
2007-03-27 08:03:20 51°13.602 2°56.101 124.8 -999 235 6.9
2007-03-27 08:03:25 51°13.602 2°56.101 124.8 -999 299 -999
2007-03-27 08:03:30 51°13.602 2°56.101 124.8 -999 231 6.9
2007-03-27 08:03:35 51°13.602 2°56.101 124.8 -999 18 6.9
2007-03-27 08:03:39 51°13.602 2°56.101 124.8 -999 264 6.9
2007-03-27 08:03:44 51°13.602 2°56.101 124.8 -999 115 6.9
2007-03-27 08:03:49 51°13.602 2°56.101 124.8 -999 217 5.2
2007-03-27 08:03:54 51°13.602 2°56.101 124.8 -999 359 6.9
2007-03-27 08:03:59 51°13.602 2°56.101 124.8 -999 9 6.9
2007-03-27 08:04:04 51°13.602 2°56.101 124.8 -999 18 6.9
2007-03-27 08:04:09 51°13.602 2°56.101 124.8 -999 215 6.9
2007-03-27 08:04:14 51°13.602 2°56.101 124.8 -999 216 6.9
2007-03-27 08:04:19 51°13.602 2°56.101 124.8 -999 153 6.9
2007-03-27 08:04:24 51°13.602 2°56.101 124.8 -999 202 5.2
2007-03-27 08:04:29 51°13.602 2°56.101 124.8 -999 343 6.9
2007-03-27 08:04:34 51°13.602 2°56.101 124.8 -999 35 6.9
2007-03-27 08:04:39 51°13.602 2°56.101 124.8 -999 129 6.9
2007-03-27 08:04:44 51°13.602 2°56.101 124.8 -999 206 6.9
2007-03-27 08:04:48 51°13.602 2°56.101 124.8 -999 332 5.2
2007-03-27 08:04:54 51°13.602 2°56.101 124.8 -999 205 6.9
2007-03-27 08:04:59 51°13.602 2°56.101 124.9 -999 180 6.9
2007-03-27 08:05:04 51°13.602 2°56.101 124.9 -999 183 6.9
2007-03-27 08:05:09 51°13.602 2°56.101 124.9 -999 359 6.9
2007-03-27 08:05:15 51°13.602 2°56.101 124.9 -999 211 -999
2007-03-27 08:05:20 51°13.602 2°56.101 124.9 -999 6 -999
2007-03-27 08:05:25 51°13.602 2°56.101 124.9 -999 219 5.3
2007-03-27 08:05:30 51°13.602 2°56.101 124.9 -999 189 5.2
2007-03-27 08:05:35 51°13.602 2°56.101 124.9 -999 189 6.9
2007-03-27 08:05:40 51°13.602 2°56.101 124.9 -999 220 6.9
2007-03-27 08:05:45 51°13.602 2°56.101 124.9 -999 246 6.9
2007-03-27 08:05:49 51°13.6 2°56.101 124.9 -999 30 6.9
2007-03-27 08:05:54 51°13.598 2°56.1 124.9 -999 195 5.2
2007-03-27 08:05:59 51°13.597 2°56.1 124.9 -999 19 6.9
2007-03-27 08:06:04 51°13.596 2°56.099 124.9 -999 52 7
2007-03-27 08:06:09 51°13.596 2°56.099 124.9 -999 68 6.9
2007-03-27 08:06:14 51°13.596 2°56.099 124.9 -999 23 7
2007-03-27 08:06:19 51°13.597 2°56.099 124.9 -999 222 6.9
2007-03-27 08:06:24 51°13.597 2°56.1 124.9 -999 212 6.9
2007-03-27 08:06:29 51°13.598 2°56.1 124.9 -999 30 5.2
2007-03-27 08:06:34 51°13.599 2°56.1 124.9 -999 222 6.9
2007-03-27 08:06:39 51°13.599 2°56.1 124.9 -999 188 6.9
2007-03-27 08:06:44 51°13.597 2°56.1 124.9 -999 3 6.9
2007-03-27 08:06:49 51°13.596 2°56.099 124.9 -999 287 6.9
2007-03-27 08:06:54 51°13.596 2°56.099 124.9 -999 260 5.3
2007-03-27 08:06:59 51°13.595 2°56.099 124.8 -999 210 6.9
2007-03-27 08:07:04 51°13.596 2°56.099 124.8 -999 37 6.9
2007-03-27 08:07:08 51°13.596 2°56.099 124.8 -999 18 6.9
2007-03-27 08:07:14 51°13.597 2°56.099 124.8 -999 37 6.9
2007-03-27 08:07:19 51°13.598 2°56.099 124.8 -999 238 6.9
2007-03-27 08:07:24 51°13.598 2°56.1 124.8 -999 41 6.9
2007-03-27 08:07:29 51°13.598 2°56.1 124.8 -999 122 6.9
2007-03-27 08:07:34 51°13.598 2°56.1 124.8 0.1 182 6.9
2007-03-27 08:07:40 51°13.598 2°56.1 124.8 -999 170 -999
2007-03-27 08:07:45 51°13.598 2°56.1 124.8 -999 359 -999
2007-03-27 08:07:51 51°13.598 2°56.1 124.9 -999 219 -999
2007-03-27 08:07:56 51°13.598 2°56.1 124.9 -999 241 -999
2007-03-27 08:08:02 51°13.598 2°56.1 124.9 -999 1 -999
2007-03-27 08:08:07 51°13.598 2°56.1 124.9 -999 236 6.9
2007-03-27 08:08:11 51°13.599 2°56.1 124.9 -999 334 5.2
2007-03-27 08:08:16 51°13.599 2°56.1 124.9 -999 26 5.2
2007-03-27 08:08:21 51°13.599 2°56.1 124.9 -999 207 6.9
2007-03-27 08:08:26 51°13.599 2°56.1 124.8 -999 336 6.9
2007-03-27 08:08:31 51°13.598 2°56.1 124.8 -999 243 6.9
2007-03-27 08:08:36 51°13.598 2°56.1 124.8 -999 200 6.9
2007-03-27 08:08:41 51°13.599 2°56.1 124.8 -999 357 6.9
2007-03-27 08:08:45 51°13.599 2°56.1 124.8 -999 6 6.9
2007-03-27 08:08:50 51°13.6 2°56.1 124.8 -999 265 6.9
2007-03-27 08:08:55 51°13.6 2°56.1 124.8 -999 229 6.9
2007-03-27 08:09:00 51°13.601 2°56.1 124.9 -999 241 5.2
2007-03-27 08:09:05 51°13.601 2°56.1 124.9 -999 221 6.9
2007-03-27 08:09:10 51°13.602 2°56.1 124.9 -999 16 6.9
2007-03-27 08:09:15 51°13.6 2°56.1 124.8 -999 203 -999
2007-03-27 08:09:20 51°13.599 2°56.099 124.8 -999 216 6.9
2007-03-27 08:09:25 51°13.599 2°56.099 124.8 -999 201 6.9
2007-03-27 08:09:30 51°13.599 2°56.099 124.8 -999 55 6.9
2007-03-27 08:09:35 51°13.599 2°56.099 124.8 -999 41 6.9
2007-03-27 08:09:40 51°13.599 2°56.099 124.8 -999 207 6.9
2007-03-27 08:09:45 51°13.599 2°56.1 124.8 -999 9 -999
2007-03-27 08:09:50 51°13.599 2°56.1 124.8 -999 233 6.9
2007-03-27 08:09:55 51°13.599 2°56.1 124.9 -999 32 6.9
2007-03-27 08:10:00 51°13.6 2°56.1 124.9 -999 14 6.9
2007-03-27 08:10:05 51°13.6 2°56.1 124.9 -999 351 6.9
2007-03-27 08:10:10 51°13.6 2°56.099 124.9 -999 13 -999
2007-03-27 08:10:15 51°13.599 2°56.099 124.9 -999 8 6.9
2007-03-27 08:10:21 51°13.599 2°56.099 124.9 -999 326 -999
2007-03-27 08:10:27 51°13.599 2°56.099 124.9 -999 237 -999
2007-03-27 08:10:31 51°13.599 2°56.099 124.9 -999 269 5.2
2007-03-27 08:10:36 51°13.6 2°56.099 124.9 -999 207 5.2
2007-03-27 08:10:41 51°13.6 2°56.099 124.9 -999 24 6.9
2007-03-27 08:10:46 51°13.6 2°56.099 124.9 -999 5 6.9
2007-03-27 08:10:51 51°13.6 2°56.099 124.9 -999 355 6.9
2007-03-27 08:10:56 51°13.6 2°56.099 124.9 -999 28 -999
2007-03-27 08:11:01 51°13.6 2°56.099 124.9 -999 332 6.9
2007-03-27 08:11:07 51°13.601 2°56.099 124.9 -999 39 -999
2007-03-27 08:11:12 51°13.602 2°56.099 124.9 -999 199 -999
2007-03-27 08:11:18 51°13.602 2°56.1 124.9 -999 183 -999
2007-03-27 08:11:23 51°13.602 2°56.1 124.9 -999 227 -999
2007-03-27 08:11:27 51°13.602 2°56.1 124.9 -999 263 -999
2007-03-27 08:11:32 51°13.602 2°56.1 124.9 -999 43 -999
2007-03-27 08:11:38 51°13.602 2°56.1 124.9 -999 -999 -999
2007-03-27 08:11:43 51°13.602 2°56.1 124.9 -999 30 6.9
2007-03-27 08:11:47 51°13.602 2°56.1 124.9 -999 214 -999
2007-03-27 08:11:52 51°13.602 2°56.1 124.9 -999 231 6.9
2007-03-27 08:11:58 51°13.601 2°56.1 124.9 -999 218 -999
2007-03-27 08:12:02 51°13.601 2°56.1 124.9 -999 243 6.9
2007-03-27 08:12:07 51°13.602 2°56.1 124.9 -999 234 6.9
2007-03-27 08:12:12 51°13.602 2°56.1 124.9 -999 194 6.9
2007-03-27 08:12:17 51°13.602 2°56.1 124.9 -999 190 6.9
2007-03-27 08:12:22 51°13.603 2°56.1 124.9 -999 207 -999
2007-03-27 08:12:27 51°13.603 2°56.1 125 -999 202 -999
2007-03-27 08:12:33 51°13.603 2°56.1 125 -999 232 -999
2007-03-27 08:12:37 51°13.602 2°56.1 125 -999 202 6.9
2007-03-27 08:12:43 51°13.601 2°56.1 125.1 -999 164 -999
2007-03-27 08:12:47 51°13.601 2°56.099 125.1 -999 243 -999
2007-03-27 08:12:52 51°13.6 2°56.099 125.1 -999 238 6.9
2007-03-27 08:12:57 51°13.6 2°56.099 125.1 -999 202 6.9
2007-03-27 08:13:02 51°13.6 2°56.099 125 -999 41 -999
2007-03-27 08:13:07 51°13.6 2°56.099 124.9 -999 192 6.9
2007-03-27 08:13:13 51°13.6 2°56.099 124.9 -999 166 -999
2007-03-27 08:13:18 51°13.601 2°56.099 124.9 -999 217 -999
2007-03-27 08:13:22 51°13.6 2°56.099 125 -999 2 6.9
2007-03-27 08:13:27 51°13.6 2°56.099 125 -999 54 6.9
2007-03-27 08:13:33 51°13.601 2°56.099 125 -999 29 -999
2007-03-27 08:13:37 51°13.601 2°56.099 125 -999 281 6.9
2007-03-27 08:13:43 51°13.601 2°56.099 125 -999 341 -999
2007-03-27 08:13:47 51°13.601 2°56.099 125 -999 234 -999
2007-03-27 08:13:52 51°13.601 2°56.099 125 -999 271 -999
2007-03-27 08:13:57 51°13.602 2°56.099 125 -999 235 6.9
2007-03-27 08:14:02 51°13.602 2°56.099 125 -999 1 6.8
2007-03-27 08:14:07 51°13.602 2°56.1 125 -999 357 6.9
2007-03-27 08:14:12 51°13.602 2°56.1 124.9 -999 33 6.9
2007-03-27 08:14:16 51°13.602 2°56.1 124.9 -999 184 6.9
2007-03-27 08:14:22 51°13.602 2°56.1 124.9 -999 343 -999
2007-03-27 08:14:27 51°13.602 2°56.1 124.9 -999 197 -999
2007-03-27 08:14:32 51°13.602 2°56.1 125 -999 218 6.9
2007-03-27 08:14:37 51°13.603 2°56.1 125 -999 233 6.9
2007-03-27 08:14:43 51°13.602 2°56.1 125 -999 24 -999
2007-03-27 08:14:47 51°13.602 2°56.1 125 -999 299 -999
2007-03-27 08:14:52 51°13.602 2°56.1 125 -999 25 6.9
2007-03-27 08:14:57 51°13.602 2°56.1 125 -999 124 6.9
2007-03-27 08:15:02 51°13.602 2°56.1 125 -999 14 -999
2007-03-27 08:15:07 51°13.602 2°56.1 125.1 -999 230 6.9
2007-03-27 08:15:12 51°13.602 2°56.1 125.1 -999 186 6.9
2007-03-27 08:15:17 51°13.602 2°56.1 125.2 -999 189 6.9
2007-03-27 08:15:21 51°13.602 2°56.1 125.2 -999 57 6.9
2007-03-27 08:15:26 51°13.601 2°56.099 125.2 -999 200 6.8
2007-03-27 08:15:31 51°13.601 2°56.099 125.2 -999 249 6.9
2007-03-27 08:15:36 51°13.601 2°56.099 125.2 -999 209 6.8
2007-03-27 08:15:41 51°13.601 2°56.099 125.2 -999 22 6.9
2007-03-27 08:15:46 51°13.601 2°56.1 125.2 -999 22 -999
2007-03-27 08:15:51 51°13.601 2°56.1 125.2 -999 195 6.9
2007-03-27 08:15:56 51°13.601 2°56.1 125.2 -999 234 6.8
2007-03-27 08:16:01 51°13.601 2°56.1 125.3 -999 6 6.9
2007-03-27 08:16:06 51°13.601 2°56.1 125.3 -999 356 6.8
2007-03-27 08:16:10 51°13.601 2°56.1 125.2 -999 208 6.8
2007-03-27 08:16:16 51°13.6 2°56.099 125.2 0.1 203 6.8
2007-03-27 08:16:21 51°13.599 2°56.099 125.2 -999 215 6.8
2007-03-27 08:16:26 51°13.599 2°56.099 125.2 -999 17 6.8
2007-03-27 08:16:31 51°13.599 2°56.099 125.2 -999 178 -999
2007-03-27 08:16:36 51°13.599 2°56.099 125.2 -999 14 6.8
2007-03-27 08:16:41 51°13.599 2°56.099 125.2 -999 57 6.8
2007-03-27 08:16:46 51°13.6 2°56.099 125.2 -999 55 -999
2007-03-27 08:16:51 51°13.6 2°56.099 125.2 -999 230 6.9
2007-03-27 08:16:56 51°13.601 2°56.1 125.2 -999 40 6.9
2007-03-27 08:17:01 51°13.601 2°56.1 125.2 -999 18 6.9
2007-03-27 08:17:05 51°13.601 2°56.1 125.2 -999 187 -999
2007-03-27 08:17:10 51°13.602 2°56.1 125.2 -999 206 6.8
2007-03-27 08:17:15 51°13.602 2°56.1 125.2 -999 7 6.8
2007-03-27 08:17:20 51°13.601 2°56.1 125.2 -999 357 6.9
2007-03-27 08:17:25 51°13.601 2°56.1 125.2 -999 322 6.9
2007-03-27 08:17:30 51°13.601 2°56.1 125.2 -999 218 6.8
2007-03-27 08:17:35 51°13.601 2°56.1 125.2 -999 328 -999
2007-03-27 08:17:41 51°13.601 2°56.1 125.2 -999 358 -999
2007-03-27 08:17:45 51°13.601 2°56.1 125.2 -999 42 6.8
2007-03-27 08:17:51 51°13.601 2°56.1 125.2 -999 13 6.8
2007-03-27 08:17:55 51°13.601 2°56.1 125.2 -999 194 6.8
2007-03-27 08:18:00 51°13.601 2°56.1 125.2 -999 239 -999
2007-03-27 08:18:05 51°13.601 2°56.1 125.2 -999 87 6.8
2007-03-27 08:18:10 51°13.6 2°56.1 125.2 -999 192 -999
2007-03-27 08:18:16 51°13.6 2°56.1 125.2 -999 136 6.9
2007-03-27 08:18:21 51°13.6 2°56.1 125.2 -999 122 6.8
2007-03-27 08:18:26 51°13.6 2°56.1 125.4 0.1 153 6.8
2007-03-27 08:18:30 51°13.6 2°56.1 125.6 0.1 105 6.8
2007-03-27 08:18:35 51°13.6 2°56.1 126.1 -999 257 6.8
2007-03-27 08:18:40 51°13.601 2°56.1 126.6 -999 245 6.8
2007-03-27 08:18:45 51°13.601 2°56.1 126.8 -999 193 6.8
2007-03-27 08:18:50 51°13.601 2°56.1 126.9 -999 164 6.8
2007-03-27 08:18:55 51°13.601 2°56.1 126.9 -999 25 -999
2007-03-27 08:19:00 51°13.601 2°56.1 126.9 -999 59 6.8
2007-03-27 08:19:05 51°13.601 2°56.1 126.9 -999 212 6.8
2007-03-27 08:19:10 51°13.601 2°56.1 126.8 -999 162 6.8
2007-03-27 08:19:15 51°13.601 2°56.1 126.7 -999 192 6.8
2007-03-27 08:19:19 51°13.601 2°56.1 126.7 -999 219 6.8
2007-03-27 08:19:24 51°13.601 2°56.1 126.7 -999 234 6.8
2007-03-27 08:19:29 51°13.601 2°56.1 126.7 -999 314 6.8
2007-03-27 08:19:34 51°13.601 2°56.1 126.7 -999 348 6.8
2007-03-27 08:19:39 51°13.601 2°56.1 126.7 -999 49 6.8
2007-03-27 08:19:44 51°13.601 2°56.1 126.7 -999 161 6.8
2007-03-27 08:19:49 51°13.601 2°56.1 126.5 0.1 187 6.8
2007-03-27 08:19:54 51°13.601 2°56.1 126 -999 186 6.8
2007-03-27 08:19:59 51°13.601 2°56.1 125.4 -999 188 6.8
2007-03-27 08:20:04 51°13.601 2°56.1 124.6 -999 198 6.8
2007-03-27 08:20:09 51°13.601 2°56.1 123.9 0.1 205 6.8
2007-03-27 08:20:14 51°13.601 2°56.1 123.3 -999 196 6.8
2007-03-27 08:20:19 51°13.601 2°56.1 122.6 0.1 194 6.8
2007-03-27 08:20:24 51°13.601 2°56.1 121.8 0.1 192 6.8
2007-03-27 08:20:29 51°13.601 2°56.1 121.1 0.1 190 6.8
2007-03-27 08:20:34 51°13.601 2°56.1 120.2 0.1 197 6.7
2007-03-27 08:20:39 51°13.601 2°56.1 119.3 0.1 195 6.7
2007-03-27 08:20:44 51°13.602 2°56.1 118.3 0.1 196 6.7
2007-03-27 08:20:49 51°13.602 2°56.1 117.4 0.1 204 6.8
2007-03-27 08:20:54 51°13.602 2°56.1 116.4 0.1 242 6.8
2007-03-27 08:20:59 51°13.602 2°56.099 115.5 0.2 282 6.9
2007-03-27 08:21:04 51°13.602 2°56.098 115 0.4 290 6.8
2007-03-27 08:21:09 51°13.602 2°56.097 114.6 0.7 288 7.1
2007-03-27 08:21:14 51°13.603 2°56.095 114.5 1 292 7
2007-03-27 08:21:19 51°13.604 2°56.092 114.5 1.3 293 7.2
2007-03-27 08:21:24 51°13.605 2°56.089 114.6 1.7 294 7.3
2007-03-27 08:21:29 51°13.606 2°56.085 114.9 1.9 293 -999
2007-03-27 08:21:35 51°13.607 2°56.08 115.2 2.2 295 -999
2007-03-27 08:21:41 51°13.609 2°56.074 115.4 2.5 295 -999
2007-03-27 08:21:46 51°13.611 2°56.068 115.4 2.7 295 -999
2007-03-27 08:21:52 51°13.612 2°56.061 115.4 2.9 293 -999
2007-03-27 08:21:58 51°13.614 2°56.054 115.1 3 292 -999
2007-03-27 08:22:02 51°13.615 2°56.049 114.6 3.2 292 -999
2007-03-27 08:22:07 51°13.617 2°56.042 114.2 3.3 292 -999
2007-03-27 08:22:13 51°13.619 2°56.034 114.2 3.4 291 -999
2007-03-27 08:22:18 51°13.621 2°56.026 114.3 3.6 291 -999
2007-03-27 08:22:22 51°13.623 2°56.02 114.7 3.7 291 -999
2007-03-27 08:22:27 51°13.624 2°56.013 115.4 3.7 292 -999
2007-03-27 08:22:33 51°13.627 2°56.003 116.4 3.9 292 -999
2007-03-27 08:22:38 51°13.629 2°55.995 117.2 4 293 -999
2007-03-27 08:22:43 51°13.632 2°55.987 118 4.2 294 -999
2007-03-27 08:22:47 51°13.633 2°55.98 118.8 4.3 295 -999
2007-03-27 08:22:52 51°13.636 2°55.971 119.7 4.4 295 -999
2007-03-27 08:22:58 51°13.64 2°55.96 120.4 4.5 296 -999
2007-03-27 08:23:03 51°13.642 2°55.951 121.3 4.6 297 -999
2007-03-27 08:23:07 51°13.645 2°55.944 121.9 4.7 298 -999
2007-03-27 08:23:12 51°13.648 2°55.935 122.5 4.7 298 -999
2007-03-27 08:23:18 51°13.652 2°55.924 122.9 4.8 299 -999
2007-03-27 08:23:23 51°13.655 2°55.914 123.3 4.8 300 -999
2007-03-27 08:23:27 51°13.658 2°55.907 123.8 4.9 300 -999
2007-03-27 08:23:33 51°13.662 2°55.896 124 4.8 301 -999
2007-03-27 08:23:37 51°13.664 2°55.889 124 4.7 300 4.6
2007-03-27 08:23:43 51°13.668 2°55.878 123.9 4.5 301 -999
2007-03-27 08:23:47 51°13.671 2°55.872 123.5 4.4 300 -999
2007-03-27 08:23:52 51°13.674 2°55.863 122.8 4.3 300 -999
2007-03-27 08:23:58 51°13.677 2°55.854 122.3 4.2 300 -999
2007-03-27 08:24:02 51°13.679 2°55.848 121.3 4.1 299 12.1
2007-03-27 08:24:07 51°13.681 2°55.84 120.6 4 298 -999
2007-03-27 08:24:12 51°13.683 2°55.832 119.7 3.9 297 -999
2007-03-27 08:24:17 51°13.686 2°55.825 118.9 3.8 297 -999
2007-03-27 08:24:22 51°13.688 2°55.817 117.6 3.7 296 -999
2007-03-27 08:24:27 51°13.69 2°55.81 116.2 3.6 295 4.5
2007-03-27 08:24:32 51°13.692 2°55.803 114.7 3.5 293 4.6
2007-03-27 08:24:37 51°13.694 2°55.796 113.2 3.4 292 4.7
2007-03-27 08:24:42 51°13.696 2°55.789 111.5 3.3 291 13.1
2007-03-27 08:24:47 51°13.697 2°55.782 109.8 3.2 290 4.6
2007-03-27 08:24:52 51°13.699 2°55.776 108.3 3.1 289 4.8
2007-03-27 08:24:57 51°13.7 2°55.77 106.6 3 288 14.4
2007-03-27 08:25:02 51°13.701 2°55.764 104.9 2.9 286 14.8
2007-03-27 08:25:07 51°13.703 2°55.758 103.2 2.8 285 15
2007-03-27 08:25:11 51°13.703 2°55.753 101.7 2.7 284 15.1
2007-03-27 08:25:16 51°13.704 2°55.748 100.2 2.6 283 15
2007-03-27 08:25:21 51°13.705 2°55.742 98.6 2.6 281 14.8
2007-03-27 08:25:26 51°13.705 2°55.737 96.9 2.5 280 14.4
2007-03-27 08:25:31 51°13.706 2°55.732 95.2 2.3 280 14.5
2007-03-27 08:25:36 51°13.706 2°55.728 93.6 1.9 281 14.5
2007-03-27 08:25:41 51°13.707 2°55.725 91.6 1.4 283 14.4
2007-03-27 08:25:45 51°13.707 2°55.723 88.5 1.2 284 14.5
2007-03-27 08:25:50 51°13.707 2°55.721 84.8 1 282 14.7
2007-03-27 08:25:55 51°13.707 2°55.719 80.9 0.9 282 14.8
2007-03-27 08:26:00 51°13.708 2°55.717 77.5 0.8 286 14.6
2007-03-27 08:26:05 51°13.708 2°55.716 74.1 0.7 289 14.6
2007-03-27 08:26:09 51°13.709 2°55.715 71.1 0.6 296 15.3
2007-03-27 08:26:15 51°13.709 2°55.713 68.1 0.5 304 14.1
2007-03-27 08:26:19 51°13.709 2°55.713 65.2 0.5 314 14.1
2007-03-27 08:26:24 51°13.71 2°55.712 62.4 0.4 324 14.1
2007-03-27 08:26:29 51°13.71 2°55.712 59.3 0.5 335 14
2007-03-27 08:26:34 51°13.711 2°55.712 56.3 0.5 345 13.9
2007-03-27 08:26:39 51°13.712 2°55.712 53.1 0.6 351 13.9
2007-03-27 08:26:44 51°13.713 2°55.712 49.8 0.6 359 13.9
2007-03-27 08:26:49 51°13.714 2°55.712 46.4 0.7 -999 13.9
2007-03-27 08:26:54 51°13.715 2°55.712 42.9 0.7 3 13.8
2007-03-27 08:26:59 51°13.716 2°55.712 39.3 0.8 2 14
2007-03-27 08:27:04 51°13.717 2°55.712 35.6 0.9 2 13.8
2007-03-27 08:27:09 51°13.719 2°55.712 32 1 1 13.6
2007-03-27 08:27:14 51°13.72 2°55.712 28.3 1.1 359 13.7
2007-03-27 08:27:19 51°13.722 2°55.712 24.6 1.2 1 13.5
2007-03-27 08:27:24 51°13.723 2°55.712 20.6 1.3 356 13.1
2007-03-27 08:27:29 51°13.726 2°55.711 16.6 1.4 357 13.3
2007-03-27 08:27:34 51°13.728 2°55.711 12.6 1.7 355 13.6
2007-03-27 08:27:39 51°13.73 2°55.71 8 1.9 351 13.3
2007-03-27 08:27:44 51°13.733 2°55.709 3 2.1 348 13.6
2007-03-27 08:27:49 51°13.736 2°55.708 357.8 2.3 345 13.4
2007-03-27 08:27:54 51°13.74 2°55.706 352.4 2.5 342 13.3
2007-03-27 08:27:59 51°13.743 2°55.704 347.4 2.8 339 13.4
2007-03-27 08:28:04 51°13.747 2°55.701 343.3 3.1 336 13.4
2007-03-27 08:28:09 51°13.751 2°55.698 340.4 3.4 335 13.2
2007-03-27 08:28:14 51°13.756 2°55.694 338.8 3.7 333 13.3
2007-03-27 08:28:19 51°13.761 2°55.69 337.6 4.1 333 13.1
2007-03-27 08:28:24 51°13.767 2°55.686 337.1 4.4 332 13.1
2007-03-27 08:28:29 51°13.772 2°55.681 337 4.6 333 13.1
2007-03-27 08:28:34 51°13.778 2°55.676 337 4.9 333 13.1
2007-03-27 08:28:39 51°13.785 2°55.671 337 5.1 333 13
2007-03-27 08:28:44 51°13.791 2°55.665 337.1 5.4 333 13
2007-03-27 08:28:49 51°13.798 2°55.659 337.5 5.8 333 13
2007-03-27 08:28:54 51°13.806 2°55.653 337.7 6.1 334 13
2007-03-27 08:28:59 51°13.814 2°55.647 337.5 6.4 333 12.9
2007-03-27 08:29:04 51°13.822 2°55.64 337.3 6.7 334 12.9
2007-03-27 08:29:08 51°13.829 2°55.634 337.5 7 334 12.9
2007-03-27 08:29:14 51°13.84 2°55.626 338.2 7.2 335 12.9
2007-03-27 08:29:19 51°13.849 2°55.618 338.6 7.4 334 12.9
2007-03-27 08:29:24 51°13.858 2°55.611 338.7 7.5 334 12.8
2007-03-27 08:29:29 51°13.868 2°55.604 338.9 7.7 335 12.8
2007-03-27 08:29:34 51°13.878 2°55.596 339.2 7.8 335 12.7
2007-03-27 08:29:39 51°13.887 2°55.589 339.3 6 335 12.8
2007-03-27 08:29:44 51°13.898 2°55.582 339.6 7.8 335 12.8
2007-03-27 08:29:48 51°13.906 2°55.576 339.6 8.2 335 12.9
2007-03-27 08:29:54 51°13.918 2°55.567 339.6 8.2 335 12.9
2007-03-27 08:29:59 51°13.929 2°55.559 339.3 8.3 334 12.9
2007-03-27 08:30:04 51°13.939 2°55.551 339.2 8.3 335 12.9
2007-03-27 08:30:09 51°13.949 2°55.543 339.5 8.4 335 12.9
2007-03-27 08:30:14 51°13.96 2°55.536 339.8 8.4 336 12.9
2007-03-27 08:30:19 51°13.971 2°55.528 340 8.5 335 12.9
2007-03-27 08:30:24 51°13.981 2°55.52 340 8.5 336 12.9
2007-03-27 08:30:29 51°13.992 2°55.512 340.3 8.5 335 12.9
2007-03-27 08:30:34 51°14.003 2°55.505 340.5 8.5 336 12.9
2007-03-27 08:30:39 51°14.013 2°55.497 340.3 8.6 335 13.3
2007-03-27 08:30:44 51°14.024 2°55.489 340.1 8.6 336 12.9
2007-03-27 08:30:49 51°14.035 2°55.481 340.3 8.6 335 -999
2007-03-27 08:30:54 51°14.046 2°55.473 340.3 8.6 336 12.9
2007-03-27 08:30:59 51°14.057 2°55.465 340.3 8.6 335 12.9
2007-03-27 08:31:04 51°14.068 2°55.457 340.3 8.6 336 12.9
2007-03-27 08:31:09 51°14.079 2°55.449 340.5 8.7 336 12.9
2007-03-27 08:31:14 51°14.09 2°55.441 340.4 8.7 335 12.9
2007-03-27 08:31:20 51°14.103 2°55.432 340.2 8.7 336 -999
2007-03-27 08:31:25 51°14.114 2°55.424 339.9 8.7 335 12.9
2007-03-27 08:31:30 51°14.125 2°55.415 339.2 8.7 334 12.9
2007-03-27 08:31:35 51°14.136 2°55.407 338.9 8.7 334 12.9
2007-03-27 08:31:40 51°14.146 2°55.398 338.2 8.7 333 -999
2007-03-27 08:31:45 51°14.157 2°55.389 337.6 8.8 332 12.9
2007-03-27 08:31:51 51°14.17 2°55.378 336.8 8.8 332 -999
2007-03-27 08:31:56 51°14.18 2°55.368 335.7 8.7 329 -999
2007-03-27 08:32:01 51°14.191 2°55.358 333.8 8.7 328 12.9
2007-03-27 08:32:06 51°14.201 2°55.347 331.9 8.9 325 13
2007-03-27 08:32:11 51°14.211 2°55.335 330.1 9.2 324 13
2007-03-27 08:32:16 51°14.222 2°55.323 328.6 9.4 323 13
2007-03-27 08:32:21 51°14.232 2°55.309 327.4 9.7 321 13
2007-03-27 08:32:26 51°14.242 2°55.295 325.7 10 319 13
2007-03-27 08:32:31 51°14.253 2°55.279 323.5 10.3 316 13
2007-03-27 08:32:36 51°14.263 2°55.262 321.6 10.6 314 13
2007-03-27 08:32:41 51°14.273 2°55.244 319.3 10.9 312 13
2007-03-27 08:32:45 51°14.281 2°55.229 317.1 11.1 311 12.9
2007-03-27 08:32:50 51°14.291 2°55.21 315.9 11.4 310 13
2007-03-27 08:32:55 51°14.302 2°55.191 315.1 11.5 310 12.8
2007-03-27 08:33:00 51°14.312 2°55.171 315.1 11.6 310 12.8
2007-03-27 08:33:05 51°14.322 2°55.15 314.2 11.9 308 12.7
2007-03-27 08:33:10 51°14.333 2°55.129 313.2 12.2 308 12.7
2007-03-27 08:33:15 51°14.343 2°55.107 312.5 12.4 307 12.8
2007-03-27 08:33:19 51°14.351 2°55.089 312.1 12.5 307 12.5
2007-03-27 08:33:24 51°14.362 2°55.067 311.8 12.7 307 12.5
2007-03-27 08:33:29 51°14.373 2°55.044 311.5 12.8 307 12.4
2007-03-27 08:33:34 51°14.384 2°55.022 311.7 13 308 12.4
2007-03-27 08:33:39 51°14.395 2°54.999 312.6 13.2 308 12.2
2007-03-27 08:33:44 51°14.406 2°54.975 312.6 13.2 308 12.2
2007-03-27 08:33:49 51°14.417 2°54.952 311.3 13.3 306 12.7
2007-03-27 08:33:54 51°14.427 2°54.927 309.8 13.4 305 12.5
2007-03-27 08:33:59 51°14.438 2°54.903 308.4 13.5 304 12.9
2007-03-27 08:34:04 51°14.448 2°54.878 307 13.4 302 12.3
2007-03-27 08:34:09 51°14.458 2°54.852 305.6 13.5 301 12.6
2007-03-27 08:34:14 51°14.467 2°54.827 304.8 13.4 301 12.6
2007-03-27 08:34:19 51°14.477 2°54.801 303.9 13.4 301 12.3
2007-03-27 08:34:24 51°14.486 2°54.775 303 13.4 300 12.2
2007-03-27 08:34:29 51°14.495 2°54.749 302.5 13.4 299 12.1
2007-03-27 08:34:34 51°14.504 2°54.724 301.9 13.4 300 12.1
2007-03-27 08:34:39 51°14.513 2°54.698 301.6 13.3 299 12.1
2007-03-27 08:34:44 51°14.522 2°54.673 300.6 13.3 299 12
2007-03-27 08:34:49 51°14.531 2°54.647 300.1 13.1 298 11.9
2007-03-27 08:34:54 51°14.54 2°54.621 299.9 13.1 298 11.9
2007-03-27 08:34:59 51°14.548 2°54.596 299.4 13.2 298 12
2007-03-27 08:35:04 51°14.557 2°54.57 299.2 13.1 298 11.9
2007-03-27 08:35:09 51°14.565 2°54.545 299.1 13.1 298 11.9
2007-03-27 08:35:14 51°14.574 2°54.519 299.4 13.1 299 12
2007-03-27 08:35:19 51°14.583 2°54.493 299.7 13.1 298 12
2007-03-27 08:35:24 51°14.591 2°54.468 299.4 13.2 298 11.9
2007-03-27 08:35:29 51°14.6 2°54.442 299.7 13.1 298 12
2007-03-27 08:35:34 51°14.608 2°54.417 299.9 13 297 11.8
2007-03-27 08:35:39 51°14.616 2°54.391 299.3 12.9 294 11.9
2007-03-27 08:35:44 51°14.621 2°54.364 293.4 12.9 287 11.9
2007-03-27 08:35:49 51°14.626 2°54.337 289.4 12.8 287 12
2007-03-27 08:35:54 51°14.63 2°54.309 287.4 12.8 282 12.1
2007-03-27 08:35:59 51°14.634 2°54.282 284.9 12.9 284 12
2007-03-27 08:36:04 51°14.637 2°54.254 283.6 12.8 279 12.1
2007-03-27 08:36:09 51°14.64 2°54.226 281.9 12.8 280 12.3
2007-03-27 08:36:14 51°14.642 2°54.198 280 12.8 275 12.2
2007-03-27 08:36:19 51°14.644 2°54.17 277.9 12.8 277 12.8
2007-03-27 08:36:24 51°14.645 2°54.142 277.1 12.7 274 12.3
2007-03-27 08:36:29 51°14.647 2°54.114 275.7 12.7 276 -999
2007-03-27 08:36:35 51°14.649 2°54.08 276.2 12.7 275 -999
2007-03-27 08:36:40 51°14.651 2°54.052 277.1 12.8 277 -999
2007-03-27 08:36:45 51°14.653 2°54.024 277.1 12.7 276 12.3
2007-03-27 08:36:50 51°14.655 2°53.996 277.3 12.7 277 12.3
2007-03-27 08:36:55 51°14.657 2°53.968 277.6 12.7 277 12.9
2007-03-27 08:37:00 51°14.659 2°53.94 277.9 12.8 277 12.2
2007-03-27 08:37:05 51°14.661 2°53.912 278.1 12.7 277 12.3
2007-03-27 08:37:10 51°14.663 2°53.885 278.2 12.8 277 12.6
2007-03-27 08:37:15 51°14.665 2°53.857 278.1 12.7 277 12.7
2007-03-27 08:37:20 51°14.668 2°53.829 278.1 12.7 277 12.3
2007-03-27 08:37:25 51°14.67 2°53.801 278 12.7 277 12.3
2007-03-27 08:37:29 51°14.671 2°53.779 278.1 12.7 277 12.1
2007-03-27 08:37:34 51°14.673 2°53.751 278.2 12.7 277 12.3
2007-03-27 08:37:39 51°14.676 2°53.723 278.2 12.8 277 12
2007-03-27 08:37:44 51°14.678 2°53.695 278.1 12.8 276 12.2
2007-03-27 08:37:49 51°14.68 2°53.667 278.1 12.8 277 12.1
2007-03-27 08:37:54 51°14.682 2°53.639 277.9 12.8 276 12.6
2007-03-27 08:37:59 51°14.684 2°53.61 278 12.9 278 12.2
2007-03-27 08:38:04 51°14.686 2°53.582 278.6 12.9 276 12
2007-03-27 08:38:09 51°14.688 2°53.554 278.9 12.9 277 11.9
2007-03-27 08:38:14 51°14.691 2°53.526 278.7 12.9 277 11.6
2007-03-27 08:38:19 51°14.692 2°53.498 278.8 12.9 276 11.3
2007-03-27 08:38:24 51°14.695 2°53.469 278.8 12.8 277 11.1
2007-03-27 08:38:29 51°14.697 2°53.441 278.7 12.9 276 11
2007-03-27 08:38:34 51°14.699 2°53.413 278.7 12.9 277 11
2007-03-27 08:38:39 51°14.701 2°53.384 279.1 13 276 11
2007-03-27 08:38:44 51°14.703 2°53.356 279.1 13 278 11
2007-03-27 08:38:49 51°14.705 2°53.328 279.5 13 276 11
2007-03-27 08:38:54 51°14.708 2°53.299 279.4 13.1 277 11
2007-03-27 08:38:59 51°14.71 2°53.271 279.6 13 277 11
2007-03-27 08:39:04 51°14.712 2°53.242 279.5 13.1 277 11
2007-03-27 08:39:09 51°14.715 2°53.213 279.8 13.1 278 10.9
2007-03-27 08:39:14 51°14.717 2°53.185 280.1 13.1 277 10.9
2007-03-27 08:39:19 51°14.719 2°53.156 280 13.1 277 10.9
2007-03-27 08:39:24 51°14.721 2°53.127 279.8 13.1 276 10.9
2007-03-27 08:39:29 51°14.724 2°53.099 279.3 13.1 277 10.9
2007-03-27 08:39:34 51°14.726 2°53.07 279.3 13.1 277 11
2007-03-27 08:39:39 51°14.728 2°53.041 279.3 13.1 277 11
2007-03-27 08:39:44 51°14.731 2°53.012 279.4 13.1 278 11
2007-03-27 08:39:49 51°14.733 2°52.984 279.9 13.1 277 11
2007-03-27 08:39:54 51°14.735 2°52.955 280 13.1 276 11.1
2007-03-27 08:39:59 51°14.738 2°52.926 279.5 13.2 278 11.1
2007-03-27 08:40:04 51°14.74 2°52.897 279.6 13.1 277 11.1
2007-03-27 08:40:09 51°14.742 2°52.868 279.5 13.2 278 11.1
2007-03-27 08:40:14 51°14.745 2°52.839 280.1 13.2 278 11.2
2007-03-27 08:40:19 51°14.748 2°52.811 280.4 13.3 278 11.2
2007-03-27 08:40:24 51°14.75 2°52.782 280.1 13.2 278 11.2
2007-03-27 08:40:29 51°14.753 2°52.753 280.4 13.2 278 11.3
2007-03-27 08:40:34 51°14.755 2°52.724 280.1 13.2 278 11.2
2007-03-27 08:40:39 51°14.757 2°52.695 280 13.2 278 11.2
2007-03-27 08:40:44 51°14.76 2°52.666 280 13.3 278 11.2
2007-03-27 08:40:49 51°14.763 2°52.637 279.9 13.2 278 11.2
2007-03-27 08:40:54 51°14.765 2°52.608 279.5 13.2 277 11.3
2007-03-27 08:40:59 51°14.767 2°52.58 279.5 13.2 278 11.3
2007-03-27 08:41:04 51°14.77 2°52.551 279.9 13.2 279 11.3
2007-03-27 08:41:09 51°14.772 2°52.522 280 13.2 277 11.4
2007-03-27 08:41:14 51°14.775 2°52.493 279.8 13.2 278 11.4
2007-03-27 08:41:19 51°14.777 2°52.464 279.8 13.2 278 11.4
2007-03-27 08:41:24 51°14.78 2°52.435 280.1 13.2 278 11.4
2007-03-27 08:41:29 51°14.783 2°52.406 280.1 13.2 278 11.5
2007-03-27 08:41:34 51°14.785 2°52.377 280.1 13.3 277 11.5
2007-03-27 08:41:39 51°14.788 2°52.349 279.4 13.2 278 11.5
2007-03-27 08:41:44 51°14.79 2°52.32 279.9 13.2 277 11.6
2007-03-27 08:41:48 51°14.792 2°52.297 279.4 13.2 278 11.6
2007-03-27 08:41:54 51°14.795 2°52.262 279.8 13.1 277 11.5
2007-03-27 08:41:59 51°14.797 2°52.233 279.4 13.1 279 11.6
2007-03-27 08:42:04 51°14.8 2°52.205 280.2 13.1 277 11.7
2007-03-27 08:42:09 51°14.803 2°52.176 279.5 13.2 279 11.7
2007-03-27 08:42:14 51°14.805 2°52.147 280 13.2 278 11.8
2007-03-27 08:42:19 51°14.808 2°52.119 280.5 13.1 279 11.8
2007-03-27 08:42:24 51°14.811 2°52.09 280.2 13.1 278 12.1
2007-03-27 08:42:29 51°14.813 2°52.061 280.2 13.2 279 12
2007-03-27 08:42:34 51°14.816 2°52.033 280.7 13.1 278 11.9
2007-03-27 08:42:39 51°14.819 2°52.004 280.3 13.1 279 11.9
2007-03-27 08:42:44 51°14.821 2°51.975 280.4 13.1 278 12
2007-03-27 08:42:49 51°14.824 2°51.947 280.1 13.1 278 12
2007-03-27 08:42:54 51°14.826 2°51.918 280.1 13.1 278 12
2007-03-27 08:42:59 51°14.829 2°51.89 279.6 13.1 278 12
2007-03-27 08:43:04 51°14.832 2°51.861 280.1 13.1 278 12
2007-03-27 08:43:09 51°14.834 2°51.832 279.4 13.1 278 12.1
2007-03-27 08:43:14 51°14.837 2°51.804 280 13.1 278 12.2
2007-03-27 08:43:19 51°14.839 2°51.775 280.1 13.1 279 12.3
2007-03-27 08:43:24 51°14.842 2°51.746 279.9 13.2 278 12.3
2007-03-27 08:43:29 51°14.845 2°51.717 280.2 13.2 280 12.4
2007-03-27 08:43:34 51°14.848 2°51.689 280.4 13.1 279 12.5
2007-03-27 08:43:39 51°14.851 2°51.66 280.8 13.2 280 12.5
2007-03-27 08:43:44 51°14.854 2°51.631 280.4 13.2 279 12.5
2007-03-27 08:43:49 51°14.856 2°51.603 280.5 13.1 278 12.6
2007-03-27 08:43:54 51°14.859 2°51.574 280 13.1 279 12.5
2007-03-27 08:43:59 51°14.862 2°51.545 280 13.1 278 12.6
2007-03-27 08:44:04 51°14.864 2°51.516 280 13.2 278 12.6
2007-03-27 08:44:09 51°14.867 2°51.488 280 13.1 279 12.7
2007-03-27 08:44:14 51°14.869 2°51.459 279.9 13.1 278 12.8
2007-03-27 08:44:19 51°14.872 2°51.431 279.6 13.1 279 12.8
2007-03-27 08:44:24 51°14.875 2°51.402 279.6 13.1 279 12.8
2007-03-27 08:44:29 51°14.879 2°51.373 280.1 13.1 281 12.9
2007-03-27 08:44:34 51°14.884 2°51.345 283.7 13.2 286 13
2007-03-27 08:44:39 51°14.889 2°51.317 286.2 13.1 286 13.1
2007-03-27 08:44:44 51°14.895 2°51.29 288.3 13.2 289 13.2
2007-03-27 08:44:49 51°14.901 2°51.262 289.8 13.2 289 13.2
2007-03-27 08:44:54 51°14.907 2°51.235 291.2 13.2 291 13.2
2007-03-27 08:44:59 51°14.914 2°51.208 292.2 13.2 290 13.2
2007-03-27 08:45:04 51°14.921 2°51.181 292.8 13.3 292 13.3
2007-03-27 08:45:09 51°14.928 2°51.153 293.2 13.2 291 13.3
2007-03-27 08:45:14 51°14.935 2°51.126 293.2 13.2 292 13.5
2007-03-27 08:45:19 51°14.941 2°51.099 293.6 13.3 291 13.4
2007-03-27 08:45:24 51°14.948 2°51.072 293.4 13.3 291 13.4
2007-03-27 08:45:29 51°14.955 2°51.045 293.1 13.2 291 13.5
2007-03-27 08:45:34 51°14.961 2°51.017 293.2 13.2 291 13.6
2007-03-27 08:45:39 51°14.968 2°50.99 293.2 13.2 291 13.6
2007-03-27 08:45:44 51°14.974 2°50.963 292.8 13.3 291 13.6
2007-03-27 08:45:49 51°14.981 2°50.935 292.9 13.3 291 13.7
2007-03-27 08:45:54 51°14.987 2°50.908 293.2 13.2 291 13.7
2007-03-27 08:45:59 51°14.993 2°50.88 292.5 13.3 290 13.8
2007-03-27 08:46:04 51°15 2°50.853 291.8 13.2 290 13.8
2007-03-27 08:46:09 51°15.006 2°50.826 291.5 13.2 289 13.9
2007-03-27 08:46:14 51°15.012 2°50.798 291.4 13.3 290 13.9
2007-03-27 08:46:19 51°15.018 2°50.771 291.4 13.2 290 13.9
2007-03-27 08:46:24 51°15.024 2°50.743 291.7 13.2 290 14.1
2007-03-27 08:46:28 51°15.029 2°50.721 291.1 13.2 289 14
2007-03-27 08:46:34 51°15.036 2°50.688 291.3 13.2 289 14
2007-03-27 08:46:39 51°15.042 2°50.661 291 13.2 289 14
2007-03-27 08:46:44 51°15.048 2°50.634 290.3 13.2 289 14
2007-03-27 08:46:49 51°15.055 2°50.606 290.5 13.2 290 14
2007-03-27 08:46:54 51°15.06 2°50.578 290.8 13.2 289 14.2
2007-03-27 08:46:59 51°15.067 2°50.551 290.9 13.2 289 14.1
2007-03-27 08:47:04 51°15.073 2°50.523 290.4 13.2 289 14.1
2007-03-27 08:47:09 51°15.079 2°50.496 290.7 13.2 290 14
2007-03-27 08:47:14 51°15.085 2°50.469 290.8 13.1 289 14.2
2007-03-27 08:47:19 51°15.091 2°50.441 290.7 13.1 291 14.1
2007-03-27 08:47:24 51°15.097 2°50.414 290.4 13.1 289 14.2
2007-03-27 08:47:29 51°15.104 2°50.387 290.6 13.1 291 14.3
2007-03-27 08:47:34 51°15.109 2°50.359 290.9 13.1 289 14.2
2007-03-27 08:47:39 51°15.116 2°50.332 291 13.1 290 14.1
2007-03-27 08:47:44 51°15.122 2°50.305 290.6 13.1 290 14.2
2007-03-27 08:47:49 51°15.128 2°50.278 290.7 13.1 289 14.2
2007-03-27 08:47:54 51°15.134 2°50.251 290.4 13.1 290 14.2
2007-03-27 08:47:59 51°15.14 2°50.224 290.6 13 289 14.1
2007-03-27 08:48:04 51°15.146 2°50.196 290.5 13.1 290 14.2
2007-03-27 08:48:09 51°15.152 2°50.169 290.4 13.1 290 14.4
2007-03-27 08:48:14 51°15.158 2°50.142 290.9 13 289 14.2
2007-03-27 08:48:19 51°15.164 2°50.115 290.2 13 290 14.1
2007-03-27 08:48:24 51°15.17 2°50.087 290.3 13 289 14.2
2007-03-27 08:48:29 51°15.176 2°50.06 290.3 13.1 289 14.4
2007-03-27 08:48:34 51°15.182 2°50.033 290.3 13 290 14.3
2007-03-27 08:48:39 51°15.187 2°50.006 290.7 13 289 14.1
2007-03-27 08:48:44 51°15.193 2°49.978 290.2 13.1 289 14.3
2007-03-27 08:48:49 51°15.199 2°49.951 290.3 13.1 289 14.4
2007-03-27 08:48:54 51°15.205 2°49.924 290.2 13 289 14.3
2007-03-27 08:48:59 51°15.211 2°49.896 290.2 13 288 14.3
2007-03-27 08:49:04 51°15.217 2°49.869 290.2 13.1 288 14.3
2007-03-27 08:49:09 51°15.223 2°49.841 290 13.2 289 14.4
2007-03-27 08:49:14 51°15.228 2°49.814 290.3 13.1 288 14.4
2007-03-27 08:49:19 51°15.234 2°49.787 290.5 13 289 14.3
2007-03-27 08:49:24 51°15.24 2°49.759 290.2 13 289 14.3
2007-03-27 08:49:28 51°15.245 2°49.738 290.3 13 289 14.4
2007-03-27 08:49:34 51°15.252 2°49.705 290.3 13.1 289 14.4
2007-03-27 08:49:39 51°15.257 2°49.677 290.4 13 289 14.3
2007-03-27 08:49:44 51°15.263 2°49.65 290.6 13 288 14.3
2007-03-27 08:49:49 51°15.269 2°49.623 290.3 13.1 290 14.4
2007-03-27 08:49:54 51°15.275 2°49.595 290.5 13.1 289 14.4
2007-03-27 08:49:59 51°15.281 2°49.568 290.5 13 289 14.4
2007-03-27 08:50:04 51°15.287 2°49.541 290.4 13.1 289 14.4
2007-03-27 08:50:09 51°15.293 2°49.514 290.5 13 289 14.5
2007-03-27 08:50:14 51°15.299 2°49.486 290.6 13 289 14.5
2007-03-27 08:50:19 51°15.305 2°49.459 290.5 13 290 14.5
2007-03-27 08:50:24 51°15.311 2°49.432 290.9 13 289 14.6
2007-03-27 08:50:29 51°15.317 2°49.405 290.7 13.1 289 14.5
2007-03-27 08:50:34 51°15.323 2°49.378 290.9 13 289 14.6
2007-03-27 08:50:39 51°15.329 2°49.351 291.2 13 290 14.6
2007-03-27 08:50:44 51°15.335 2°49.324 290.9 13 289 14.6
2007-03-27 08:50:49 51°15.341 2°49.297 290.7 13 290 14.5
2007-03-27 08:50:54 51°15.347 2°49.27 290.3 13 289 14.7
2007-03-27 08:50:59 51°15.353 2°49.243 290.4 13 290 14.7
2007-03-27 08:51:04 51°15.359 2°49.216 290.4 12.9 289 14.7
2007-03-27 08:51:09 51°15.365 2°49.188 290 13 290 14.7
2007-03-27 08:51:14 51°15.371 2°49.161 290.6 13 289 14.7
2007-03-27 08:51:19 51°15.377 2°49.134 290.5 13 290 14.6
2007-03-27 08:51:24 51°15.383 2°49.107 290.2 13 289 14.6
2007-03-27 08:51:29 51°15.389 2°49.08 290.2 13.1 290 14.6
2007-03-27 08:51:34 51°15.395 2°49.053 290.6 13 289 14.6